METAR Data
IDs: Format: Raw Decoded Include TAF

Data at: 0802 UTC 18 Nov 2018

PAJZ 180056Z AUTO 12012KT 6SM -RA BR FEW010 BKN042 OVC055 04/04 A2939 RMK AO2 SLP960 P0004 T00440039 $
PAJZ 172334Z AUTO 12015G20KT 6SM -RA BR SCT009 BKN019 OVC032 05/04 A2942 RMK AO2 P0003 $
PAJZ 172256Z AUTO 11014KT 7SM -RA SCT011 BKN019 OVC033 05/04 A2943 RMK AO2 SLP972 P0002 T00500039 $
PAJZ 172156Z AUTO 11017KT 7SM -RA FEW029 OVC037 05/03 A2944 RMK AO2 SLP976 P0000 T00500033 $
PAJZ 171956Z AUTO 11015KT 7SM BKN050 OVC060 05/03 A2946 RMK AO2 RAB00E16 SLP983 P0000 T00500028 $
PAJZ 171856Z AUTO 11012G21KT 7SM FEW035 SCT042 OVC055 05/03 A2947 RMK AO2 RAE30 SLP985 P0000 T00500028 $
PAJZ 171756Z AUTO 11015KT 8SM -RA OVC037 05/03 A2947 RMK AO2 RAB35 SLP986 P0000 60000 T00500028 10056 20050 56011 $
PAJZ 171656Z AUTO 11014KT 8SM BKN037 OVC044 05/03 A2948 RMK AO2 RAE13 SLP988 P0000 T00500028 $
PAJZ 171556Z AUTO 12013KT 8SM -RA FEW041 OVC070 05/03 A2949 RMK AO2 SLP992 P0000 T00500028 $
PAJZ 171456Z AUTO 12010KT 7SM -RA OVC031 05/03 A2950 RMK AO2 RAB50 SLP998 P0000 60000 T00500028 58010 $
PAJZ 171356Z AUTO 11012KT 8SM OVC035 05/03 A2952 RMK AO2 RAE31 SLP002 P0000 T00500028 $
PAJZ 171256Z AUTO 11014KT 9SM -RA OVC041 05/03 A2953 RMK AO2 RAB49 SLP007 P0000 T00500028 $
PAJZ 171156Z AUTO 11014KT 8SM OVC039 05/03 A2953 RMK AO2 RAE36 SLP008 P0000 60002 70004 T00500028 10061 20050 58020 $
PAJZ 171056Z AUTO 11014KT 8SM -RA OVC043 05/03 A2956 RMK AO2 SLP018 P0001 T00500028 $
PAJZ 170956Z AUTO 11014KT 10SM -RA OVC049 05/03 A2958 RMK AO2 SLP025 P0000 T00500028 $
PAJZ 170856Z AUTO 10015G21KT 9SM -RA OVC049 06/03 A2959 RMK AO2 PK WND 11026/0802 SLP027 P0000 60001 T00560028 57010 $
PAJZ 170756Z AUTO 10018G25KT 10SM -RA OVC049 06/03 A2961 RMK AO2 PK WND 11030/0712 SLP032 P0000 T00560028 400670006 $
PAJZ 170656Z AUTO 10021G26KT 9SM -RA OVC049 06/03 A2961 RMK AO2 PK WND 12028/0625 SLP033 P0001 T00560028 $
PAJZ 170556Z AUTO 11020G26KT 8SM -RA BKN047 OVC060 06/03 A2962 RMK AO2 PK WND 11031/0522 RAB05E17B36 SLP038 P0000 60001 T00560028 10061 20056 58016 $
PAJZ 170456Z AUTO 11023G27KT 8SM SCT060 OVC070 06/02 A2964 RMK AO2 PK WND 10030/0358 RAE09B30E46 SLP045 P0000 T00610022 $
PAJZ 170356Z AUTO 11021G29KT 9SM -RA BKN049 OVC060 06/03 A2965 RMK AO2 PK WND 11031/0303 SLP048 P0000 T00610028 $
PAJZ 170256Z AUTO 11023G30KT 9SM -RA OVC050 06/03 A2967 RMK AO2 PK WND 12033/0219 SLP054 P0001 60001 T00610028 58015 $
PAJZ 170156Z AUTO 11025G34KT 8SM -RA OVC070 06/03 A2968 RMK AO2 PK WND 11035/0116 SLP059 P0000 T00610028 $
PAJZ 170056Z AUTO 12027G38KT 10SM -RA OVC060 06/03 A2970 RMK AO2 PK WND 12038/0051 SLP066 P0000 T00610028 $
PAJZ 162356Z AUTO 12030G38KT 10SM -RA OVC065 06/03 A2971 RMK AO2 PK WND 12038/2348 RAB28 SLP070 P0000 60000 T00610028 10067 20050 58016 $
PAJZ 162256Z AUTO 11026G36KT 7SM OVC050 07/03 A2973 RMK AO2 PK WND 12036/2252 SLP075 T00670028 $
PAJZ 162156Z AUTO 11021G32KT 7SM FEW021 OVC048 07/03 A2976 RMK AO2 PK WND 11034/2139 SLP083 T00670033 $
PAJZ 162056Z AUTO 10019G25KT 7SM OVC070 06/03 A2976 RMK AO2 PK WND 11029/2005 SLP085 T00610033 58010 $